Time;durP1;ratioP1;P1;durP2;ratioP2;P2;SDS_P1;SDS_P2;PMS_P1;PMS_P2;Temp;Humidity;BMP_temperature;BMP_pressure;BME280_temperature;BME280_humidity;BME280_pressure;Samples;Min_cycle;Max_cycle;Signal;HPM_P1;HPM_P2
2021/06/14 00:00:22;;;;;;;15.32;9.95;;;17.00;99.90;;;;;;4921608;29;20078;-71
2021/06/14 00:02:48;;;;;;;21.30;13.80;;;17.00;99.90;;;;;;4923517;29;20051;-72
2021/06/14 00:05:28;;;;;;;21.90;13.00;;;17.00;99.90;;;;;;4918487;29;20050;-71
2021/06/14 00:07:54;;;;;;;25.38;15.55;;;17.00;99.90;;;;;;4917829;29;20040;-72
2021/06/14 00:10:23;;;;;;;22.58;15.02;;;16.90;99.90;;;;;;4937260;29;20035;-71
2021/06/14 00:12:48;;;;;;;18.35;10.43;;;16.90;99.90;;;;;;4925207;29;20073;-72
2021/06/14 00:15:15;;;;;;;21.42;10.55;;;16.90;99.90;;;;;;4918595;29;20115;-71
2021/06/14 00:17:41;;;;;;;18.00;9.60;;;16.80;99.90;;;;;;4921015;29;20135;-72
2021/06/14 00:20:11;;;;;;;16.90;9.05;;;16.80;99.90;;;;;;4918097;29;20071;-72
2021/06/14 00:22:39;;;;;;;15.23;7.65;;;16.80;99.90;;;;;;4934134;29;20119;-72
2021/06/14 00:25:07;;;;;;;16.35;8.40;;;16.80;99.90;;;;;;4917886;29;20055;-72
2021/06/14 00:27:33;;;;;;;18.02;7.43;;;16.80;99.90;;;;;;4917966;29;20040;-72
2021/06/14 00:29:58;;;;;;;15.32;8.10;;;16.80;99.90;;;;;;4934138;29;20067;-72
2021/06/14 00:32:24;;;;;;;12.05;7.53;;;16.80;99.90;;;;;;4916584;29;20036;-72
2021/06/14 00:34:50;;;;;;;15.27;7.90;;;16.70;99.90;;;;;;4918115;29;20036;-72
2021/06/14 00:37:16;;;;;;;13.75;7.65;;;16.80;99.90;;;;;;4917898;29;20043;-72
2021/06/14 00:39:42;;;;;;;17.35;8.43;;;16.70;99.90;;;;;;4917788;29;20062;-72
2021/06/14 00:42:08;;;;;;;18.02;8.20;;;16.70;99.90;;;;;;4922362;29;20032;-72
2021/06/14 00:44:34;;;;;;;18.33;7.50;;;16.70;99.90;;;;;;4917753;29;20090;-71
2021/06/14 00:46:59;;;;;;;11.73;7.60;;;16.70;99.90;;;;;;4917703;29;20469;-72
2021/06/14 00:49:25;;;;;;;14.25;6.97;;;16.70;99.90;;;;;;4916329;29;20489;-71
2021/06/14 00:51:51;;;;;;;15.50;8.00;;;16.60;99.90;;;;;;4921964;29;20048;-71
2021/06/14 00:54:17;;;;;;;15.93;7.60;;;16.60;99.90;;;;;;4922870;29;20401;-71
2021/06/14 00:56:42;;;;;;;14.75;7.25;;;16.60;99.90;;;;;;4932023;29;20087;-71
2021/06/14 00:59:09;;;;;;;13.93;7.45;;;16.70;99.90;;;;;;4926316;29;20045;-71
2021/06/14 01:01:35;;;;;;;14.55;7.80;;;16.50;99.90;;;;;;4920999;29;20042;-71
2021/06/14 01:04:01;;;;;;;15.38;7.85;;;16.50;99.90;;;;;;4929420;29;20505;-71
2021/06/14 01:06:27;;;;;;;15.45;6.72;;;16.50;99.90;;;;;;4922661;29;20039;-71
2021/06/14 01:08:53;;;;;;;13.25;7.22;;;16.50;99.90;;;;;;4924287;29;20040;-71
2021/06/14 01:11:41;;;;;;;13.38;7.35;;;16.50;99.90;;;;;;4928613;29;20045;-72
2021/06/14 01:14:20;;;;;;;18.15;7.50;;;16.50;99.90;;;;;;4931281;29;20123;-72
2021/06/14 01:16:53;;;;;;;14.40;7.80;;;16.50;99.90;;;;;;4925487;29;20044;-72
2021/06/14 01:19:50;;;;;;;15.68;7.10;;;16.30;99.90;;;;;;4919018;29;20044;-72
2021/06/14 01:22:53;;;;;;;14.95;7.53;;;16.40;99.90;;;;;;4918133;29;20100;-72
2021/06/14 01:25:24;;;;;;;10.82;6.82;;;16.40;99.90;;;;;;4931222;29;20425;-72
2021/06/14 01:27:56;;;;;;;14.05;7.10;;;16.40;99.90;;;;;;4930164;29;20099;-72
2021/06/14 01:30:28;;;;;;;14.23;7.15;;;16.40;99.90;;;;;;4917041;29;20094;-72
2021/06/14 01:32:54;;;;;;;14.35;7.78;;;16.40;99.90;;;;;;4916836;29;20036;-72
2021/06/14 01:35:26;;;;;;;14.30;7.07;;;16.40;99.90;;;;;;4917858;29;20044;-72
2021/06/14 01:37:56;;;;;;;12.13;6.95;;;16.30;99.90;;;;;;4916898;29;20444;-72
2021/06/14 01:40:23;;;;;;;11.57;7.07;;;16.30;99.90;;;;;;4926724;29;20086;-72
2021/06/14 01:42:53;;;;;;;13.77;6.82;;;16.30;99.90;;;;;;4916764;29;20070;-71
2021/06/14 01:45:22;;;;;;;15.95;6.80;;;16.20;99.90;;;;;;4916707;29;20036;-72
2021/06/14 01:47:48;;;;;;;15.80;7.35;;;16.20;99.90;;;;;;4921333;29;20044;-72
2021/06/14 01:50:14;;;;;;;17.25;7.63;;;16.10;99.90;;;;;;4923207;29;20059;-71
2021/06/14 01:52:41;;;;;;;14.70;7.57;;;16.10;99.90;;;;;;4921621;29;20094;-71
2021/06/14 01:55:08;;;;;;;12.50;6.90;;;16.10;99.90;;;;;;4915359;29;20043;-72
2021/06/14 01:57:34;;;;;;;11.98;7.18;;;16.00;99.90;;;;;;4915530;29;20091;-71
2021/06/14 02:00:00;;;;;;;11.38;6.35;;;16.00;99.90;;;;;;4916675;29;20040;-72
2021/06/14 02:02:29;;;;;;;16.33;6.95;;;16.10;99.90;;;;;;4929012;29;20036;-72
2021/06/14 02:04:56;;;;;;;12.07;6.47;;;16.00;99.90;;;;;;4933080;29;20454;-72
2021/06/14 02:07:23;;;;;;;12.68;6.40;;;16.00;99.90;;;;;;4937322;29;20056;-72
2021/06/14 02:09:51;;;;;;;10.73;6.18;;;16.00;99.90;;;;;;4930515;29;20044;-72
2021/06/14 02:12:17;;;;;;;10.98;5.93;;;16.00;99.90;;;;;;4925658;29;20098;-72
2021/06/14 02:14:44;;;;;;;13.88;6.47;;;15.90;99.90;;;;;;4916462;29;20044;-72
2021/06/14 02:17:14;;;;;;;11.48;6.35;;;15.90;99.90;;;;;;4916360;29;20036;-71
2021/06/14 02:19:41;;;;;;;15.88;5.95;;;15.80;99.90;;;;;;4916230;29;20099;-71
2021/06/14 02:22:09;;;;;;;10.85;5.97;;;15.90;99.90;;;;;;4934132;29;20054;-71
2021/06/14 02:24:35;;;;;;;13.23;6.40;;;15.90;99.90;;;;;;4917299;29;20040;-71
2021/06/14 02:27:01;;;;;;;11.20;6.35;;;15.90;99.90;;;;;;4920044;29;20396;-72
2021/06/14 02:29:27;;;;;;;12.80;5.97;;;15.90;99.90;;;;;;4928758;29;20036;-72
2021/06/14 02:31:53;;;;;;;13.07;6.40;;;15.90;99.90;;;;;;4916009;29;20485;-72
2021/06/14 02:34:19;;;;;;;13.82;6.15;;;15.80;99.90;;;;;;4901813;29;20035;-72
2021/06/14 02:36:46;;;;;;;10.20;6.18;;;15.80;99.90;;;;;;4916081;29;20040;-72
2021/06/14 02:39:15;;;;;;;11.50;6.38;;;15.80;99.90;;;;;;4943712;29;20048;-72
2021/06/14 02:41:43;;;;;;;14.32;5.85;;;15.80;99.90;;;;;;4930714;29;20401;-72
2021/06/14 02:44:10;;;;;;;12.02;5.97;;;15.80;99.90;;;;;;4935312;29;20480;-72
2021/06/14 02:46:39;;;;;;;11.60;5.65;;;15.80;99.90;;;;;;4920782;29;20171;-72
2021/06/14 02:49:06;;;;;;;12.50;6.28;;;15.90;99.90;;;;;;4916078;29;20047;-72
2021/06/14 02:51:34;;;;;;;17.10;6.03;;;15.80;99.90;;;;;;4930332;29;20044;-72
2021/06/14 02:54:03;;;;;;;10.98;5.70;;;15.80;99.90;;;;;;4919273;29;20155;-72
2021/06/14 02:56:34;;;;;;;14.00;5.50;;;15.80;99.90;;;;;;4917025;29;20115;-72
2021/06/14 02:59:04;;;;;;;14.02;5.72;;;15.80;99.90;;;;;;4916178;29;20069;-72
2021/06/14 03:01:31;;;;;;;13.60;6.38;;;15.80;99.90;;;;;;4914500;29;20115;-72
2021/06/14 03:03:58;;;;;;;15.10;6.00;;;15.80;99.90;;;;;;4931222;29;20115;-72
2021/06/14 03:06:25;;;;;;;12.95;6.03;;;15.80;99.90;;;;;;4933899;29;20396;-72
2021/06/14 03:08:52;;;;;;;14.02;5.72;;;15.80;99.90;;;;;;4925541;29;20485;-72
2021/06/14 03:11:22;;;;;;;11.18;5.70;;;15.80;99.90;;;;;;4915794;29;20116;-72
2021/06/14 03:13:49;;;;;;;14.20;6.28;;;15.80;99.90;;;;;;4915512;29;20028;-71
2021/06/14 03:16:18;;;;;;;15.93;5.35;;;15.80;99.90;;;;;;4918149;29;20067;-72
2021/06/14 03:18:44;;;;;;;15.23;5.97;;;15.70;99.90;;;;;;4921307;29;20477;-72
2021/06/14 03:21:11;;;;;;;13.10;5.53;;;15.70;99.90;;;;;;4928754;29;20046;-72
2021/06/14 03:23:36;;;;;;;10.93;5.78;;;15.70;99.90;;;;;;4915426;29;20108;-72
2021/06/14 03:26:08;;;;;;;10.55;5.70;;;15.70;99.90;;;;;;4915803;29;20040;-72
2021/06/14 03:28:35;;;;;;;15.82;6.07;;;15.70;99.90;;;;;;4922741;29;20082;-72
2021/06/14 03:31:02;;;;;;;11.43;5.70;;;15.70;99.90;;;;;;4930455;29;20040;-72
2021/06/14 03:33:28;;;;;;;10.55;5.65;;;15.70;99.90;;;;;;4933137;29;20083;-72
2021/06/14 03:35:55;;;;;;;12.93;5.50;;;15.60;99.90;;;;;;4906191;29;20032;-72
2021/06/14 03:38:21;;;;;;;16.23;5.85;;;15.70;99.90;;;;;;4941059;29;20481;-72
2021/06/14 03:40:47;;;;;;;12.18;5.93;;;15.70;99.90;;;;;;4918814;29;20047;-72
2021/06/14 03:43:13;;;;;;;11.52;5.90;;;15.60;99.90;;;;;;4919239;29;20036;-72
2021/06/14 03:45:38;;;;;;;14.38;6.28;;;15.60;99.90;;;;;;4918522;29;20067;-72
2021/06/14 03:48:04;;;;;;;12.93;5.95;;;15.70;99.90;;;;;;4934379;29;20140;-72
2021/06/14 03:50:30;;;;;;;13.05;6.53;;;15.60;99.90;;;;;;4928841;29;20443;-72
2021/06/14 03:52:56;;;;;;;13.05;6.28;;;15.60;99.90;;;;;;4919425;29;20433;-72
2021/06/14 03:55:23;;;;;;;16.33;6.13;;;15.70;99.90;;;;;;4919438;29;20051;-72
2021/06/14 03:57:48;;;;;;;15.52;6.38;;;15.70;99.90;;;;;;4919992;29;20072;-72
2021/06/14 04:00:16;;;;;;;15.45;6.88;;;15.70;99.90;;;;;;4930600;29;20492;-71
2021/06/14 04:02:42;;;;;;;17.75;6.38;;;15.70;99.90;;;;;;4935000;29;20046;-71
2021/06/14 04:05:09;;;;;;;13.48;6.78;;;15.70;99.90;;;;;;4923123;29;20036;-72
2021/06/14 04:07:35;;;;;;;10.50;6.43;;;15.70;99.90;;;;;;4922161;29;20511;-71
2021/06/14 04:10:02;;;;;;;11.85;6.57;;;15.80;99.90;;;;;;4919272;29;20040;-72
2021/06/14 04:12:29;;;;;;;14.13;6.63;;;15.80;99.90;;;;;;4925071;29;20042;-72
2021/06/14 04:14:56;;;;;;;12.50;6.97;;;15.80;99.90;;;;;;4918173;29;20044;-72
2021/06/14 04:17:22;;;;;;;19.60;7.45;;;15.80;99.90;;;;;;4925747;29;20485;-72
2021/06/14 04:19:48;;;;;;;15.02;7.03;;;15.90;99.90;;;;;;4933555;29;20044;-72
2021/06/14 04:22:14;;;;;;;12.52;6.20;;;15.90;99.90;;;;;;4938488;29;20528;-72
2021/06/14 04:24:40;;;;;;;11.93;6.90;;;16.00;99.90;;;;;;4923823;29;20036;-72
2021/06/14 04:27:06;;;;;;;14.95;7.13;;;16.00;99.90;;;;;;4920426;29;20040;-72
2021/06/14 04:29:33;;;;;;;14.32;7.30;;;16.00;99.90;;;;;;4925528;29;20469;-72
2021/06/14 04:31:59;;;;;;;14.65;7.22;;;16.10;99.90;;;;;;4918084;29;20036;-71
2021/06/14 04:34:26;;;;;;;13.18;7.05;;;16.20;99.90;;;;;;4929116;29;20036;-72
2021/06/14 04:36:52;;;;;;;13.00;7.13;;;16.20;99.90;;;;;;4925531;29;20441;-72
2021/06/14 04:39:17;;;;;;;14.60;6.43;;;16.30;99.90;;;;;;4939617;29;20075;-71
2021/06/14 04:41:43;;;;;;;13.88;6.57;;;16.40;99.90;;;;;;4918050;29;20040;-71
2021/06/14 04:44:09;;;;;;;18.17;6.95;;;16.40;99.90;;;;;;4917687;29;20103;-71
2021/06/14 04:46:35;;;;;;;14.32;6.45;;;16.40;99.90;;;;;;4916878;29;20044;-71
2021/06/14 04:49:02;;;;;;;14.75;6.63;;;16.50;99.90;;;;;;4938278;29;20043;-72
2021/06/14 04:51:28;;;;;;;17.35;7.28;;;16.60;99.90;;;;;;4932716;29;20035;-72
2021/06/14 04:53:54;;;;;;;20.15;6.55;;;16.60;99.90;;;;;;4931450;29;20039;-71
2021/06/14 04:56:20;;;;;;;11.23;6.25;;;16.80;99.90;;;;;;4927313;29;20119;-71
2021/06/14 04:58:46;;;;;;;12.68;5.97;;;16.80;99.90;;;;;;4932279;29;20051;-71
2021/06/14 05:01:12;;;;;;;15.23;6.32;;;16.90;99.90;;;;;;4917520;29;20040;-71
2021/06/14 05:03:38;;;;;;;14.48;6.25;;;17.00;99.90;;;;;;4929013;29;20402;-72
2021/06/14 05:06:04;;;;;;;15.05;6.00;;;17.10;99.90;;;;;;4925934;29;20066;-71
2021/06/14 05:08:30;;;;;;;13.55;6.32;;;17.20;99.90;;;;;;4916818;29;20047;-72
2021/06/14 05:10:56;;;;;;;12.25;5.80;;;17.50;99.90;;;;;;4915079;29;20074;-72
2021/06/14 05:13:22;;;;;;;13.48;6.45;;;17.40;99.90;;;;;;4917087;29;20445;-72
2021/06/14 05:15:48;;;;;;;14.63;6.25;;;17.50;99.90;;;;;;4917223;29;20496;-72
2021/06/14 05:18:14;;;;;;;15.35;6.07;;;17.60;99.90;;;;;;4917209;29;20039;-71
2021/06/14 05:20:40;;;;;;;15.45;6.70;;;17.80;99.90;;;;;;4916951;29;20131;-72
2021/06/14 05:23:06;;;;;;;16.88;6.63;;;17.80;99.90;;;;;;4935085;29;20449;-72
2021/06/14 05:25:35;;;;;;;19.55;6.70;;;17.90;99.90;;;;;;4920313;29;20047;-71
2021/06/14 05:28:02;;;;;;;17.00;6.32;;;18.00;99.90;;;;;;4925561;29;20064;-72
2021/06/14 05:30:28;;;;;;;15.25;6.13;;;18.10;99.90;;;;;;4919141;29;20040;-72
2021/06/14 05:32:54;;;;;;;14.00;7.18;;;18.20;99.90;;;;;;4921770;29;20087;-72
2021/06/14 05:35:19;;;;;;;11.82;6.03;;;18.20;99.90;;;;;;4921308;29;20516;-72
2021/06/14 05:37:47;;;;;;;12.98;7.10;;;18.40;99.90;;;;;;4943063;29;20060;-72
2021/06/14 05:40:14;;;;;;;13.13;5.97;;;18.40;99.90;;;;;;4917325;29;20511;-72
2021/06/14 05:42:39;;;;;;;11.90;5.50;;;18.50;99.90;;;;;;4919726;29;20063;-72
2021/06/14 05:45:06;;;;;;;14.90;5.80;;;18.60;99.90;;;;;;4919435;29;20071;-72
2021/06/14 05:47:32;;;;;;;14.20;6.40;;;18.70;99.90;;;;;;4916806;29;20043;-72
2021/06/14 05:49:58;;;;;;;11.10;5.15;;;18.80;99.90;;;;;;4925343;29;20043;-72
2021/06/14 05:52:24;;;;;;;16.38;5.85;;;18.90;99.90;;;;;;4930346;29;20102;-72
2021/06/14 05:54:51;;;;;;;11.50;6.07;;;19.00;99.90;;;;;;4916835;29;20088;-71
2021/06/14 05:57:16;;;;;;;15.00;5.80;;;19.00;99.90;;;;;;4915586;29;20044;-71
2021/06/14 05:59:42;;;;;;;13.32;5.45;;;19.10;99.90;;;;;;4919359;29;20086;-71
2021/06/14 06:02:08;;;;;;;18.77;5.55;;;19.10;99.90;;;;;;4934393;29;20071;-76
2021/06/14 06:04:34;;;;;;;15.30;5.55;;;19.20;99.90;;;;;;4918037;29;20032;-76
2021/06/14 06:07:00;;;;;;;14.60;5.57;;;19.20;99.90;;;;;;4919681;29;20552;-75
2021/06/14 06:09:26;;;;;;;10.10;5.32;;;19.30;99.90;;;;;;4909985;29;20103;-75
2021/06/14 06:11:56;;;;;;;11.00;5.53;;;19.40;99.90;;;;;;4916057;29;20036;-75
2021/06/14 06:14:23;;;;;;;14.18;5.25;;;19.40;99.90;;;;;;4914772;29;20492;-75
2021/06/14 06:16:49;;;;;;;17.65;5.85;;;19.50;99.90;;;;;;4931079;29;20342;-75
2021/06/14 06:19:15;;;;;;;14.75;5.43;;;19.60;99.90;;;;;;4915882;29;20064;-75
2021/06/14 06:21:41;;;;;;;11.30;5.00;;;19.60;99.90;;;;;;4914053;29;20082;-75
2021/06/14 06:24:07;;;;;;;16.27;5.35;;;19.70;99.90;;;;;;4913465;29;20130;-75
2021/06/14 06:26:33;;;;;;;16.08;5.72;;;19.70;99.70;;;;;;4919858;29;20088;-75
2021/06/14 06:28:59;;;;;;;15.43;5.82;;;19.70;99.30;;;;;;4925650;29;20043;-76
2021/06/14 06:31:25;;;;;;;11.98;5.18;;;19.80;99.20;;;;;;4924621;29;20052;-76
2021/06/14 06:33:51;;;;;;;11.25;5.35;;;19.80;99.30;;;;;;4915763;29;20100;-75
2021/06/14 06:36:17;;;;;;;13.75;5.20;;;19.80;99.40;;;;;;4916262;29;20376;-75
2021/06/14 06:38:42;;;;;;;13.23;5.25;;;19.80;99.20;;;;;;4915888;29;20044;-76
2021/06/14 06:41:08;;;;;;;13.57;5.43;;;19.90;98.80;;;;;;4920576;29;20060;-75
2021/06/14 06:43:35;;;;;;;11.02;5.28;;;19.90;98.40;;;;;;4914941;29;20503;-75
2021/06/14 06:46:02;;;;;;;13.23;5.15;;;19.90;98.30;;;;;;4920458;29;20048;-75
2021/06/14 06:48:29;;;;;;;13.13;5.07;;;20.00;98.20;;;;;;4923960;29;20040;-73
2021/06/14 06:50:56;;;;;;;11.70;4.80;;;20.10;98.00;;;;;;4915216;29;20052;-73
2021/06/14 06:53:23;;;;;;;12.60;5.00;;;20.10;98.10;;;;;;4921691;29;20063;-73
2021/06/14 06:55:49;;;;;;;12.70;5.15;;;20.10;98.00;;;;;;4918995;29;20043;-73
2021/06/14 06:58:15;;;;;;;10.63;5.10;;;20.20;97.50;;;;;;4938044;29;20048;-73
2021/06/14 07:00:43;;;;;;;14.75;5.25;;;20.20;97.30;;;;;;4923073;29;20036;-72
2021/06/14 07:03:09;;;;;;;12.80;4.47;;;20.20;97.10;;;;;;4898886;29;20079;-72
2021/06/14 07:05:36;;;;;;;10.25;4.93;;;20.30;97.00;;;;;;4907975;29;20032;-72
2021/06/14 07:08:03;;;;;;;12.95;5.03;;;20.30;96.80;;;;;;4908326;29;20070;-72
2021/06/14 07:10:28;;;;;;;11.35;4.53;;;20.40;96.90;;;;;;4909147;29;20087;-72
2021/06/14 07:12:55;;;;;;;13.95;5.25;;;20.40;97.00;;;;;;4914686;29;20060;-72
2021/06/14 07:15:20;;;;;;;12.25;4.95;;;20.50;97.00;;;;;;4916647;29;20062;-72
2021/06/14 07:17:46;;;;;;;8.40;4.45;;;20.50;97.00;;;;;;4914098;29;20417;-72
2021/06/14 07:20:14;;;;;;;10.98;4.95;;;20.60;96.80;;;;;;4915830;29;20446;-72
2021/06/14 07:22:41;;;;;;;10.18;4.85;;;20.60;96.70;;;;;;4915577;29;20492;-72
2021/06/14 07:25:08;;;;;;;12.13;4.65;;;20.60;96.50;;;;;;4915660;29;20099;-72
2021/06/14 07:27:34;;;;;;;11.52;4.90;;;20.60;96.40;;;;;;4916520;29;20481;-72
2021/06/14 07:30:01;;;;;;;16.92;5.07;;;20.60;96.20;;;;;;4915729;29;20088;-72
2021/06/14 07:32:27;;;;;;;14.10;4.68;;;20.60;96.00;;;;;;4913953;29;20400;-72
2021/06/14 07:34:53;;;;;;;11.32;4.75;;;20.60;96.10;;;;;;4909545;29;20123;-72
2021/06/14 07:37:18;;;;;;;13.90;4.80;;;20.60;95.70;;;;;;4914263;29;20119;-72
2021/06/14 07:39:47;;;;;;;13.35;4.50;;;20.70;95.60;;;;;;4916737;29;20044;-72
2021/06/14 07:42:23;;;;;;;11.23;4.38;;;20.70;95.50;;;;;;4913995;29;20052;-72
2021/06/14 07:44:49;;;;;;;11.02;4.80;;;20.70;95.40;;;;;;4929111;29;20032;-72
2021/06/14 07:47:14;;;;;;;12.88;5.00;;;20.70;95.30;;;;;;4915328;29;20107;-73
2021/06/14 07:49:41;;;;;;;13.48;4.35;;;20.70;95.40;;;;;;4913806;29;20103;-72
2021/06/14 07:52:08;;;;;;;11.43;4.28;;;20.70;95.50;;;;;;4914029;29;20107;-72
2021/06/14 07:54:34;;;;;;;11.43;4.60;;;20.80;95.70;;;;;;4928871;29;20488;-72
2021/06/14 07:57:00;;;;;;;11.07;5.22;;;20.80;95.10;;;;;;4914048;29;20032;-74
2021/06/14 07:59:26;;;;;;;13.77;4.95;;;20.90;94.80;;;;;;4912121;29;20492;-74
2021/06/14 08:01:52;;;;;;;11.20;4.40;;;20.90;94.70;;;;;;4912514;29;21627;-74
2021/06/14 08:04:18;;;;;;;15.05;4.93;;;21.00;94.60;;;;;;4912657;29;20051;-74
2021/06/14 08:06:44;;;;;;;12.70;4.75;;;21.10;94.80;;;;;;4917201;29;20040;-72
2021/06/14 08:09:13;;;;;;;12.30;4.88;;;21.20;95.10;;;;;;4929583;29;20036;-71
2021/06/14 08:11:43;;;;;;;11.63;4.40;;;21.20;95.10;;;;;;4914966;29;20127;-76
2021/06/14 08:14:10;;;;;;;10.82;4.13;;;21.30;95.10;;;;;;4930488;29;20040;-75
2021/06/14 08:16:41;;;;;;;14.63;4.20;;;21.40;94.90;;;;;;4914649;29;20119;-74
2021/06/14 08:19:14;;;;;;;13.40;4.38;;;21.40;94.60;;;;;;4912580;29;20040;-73
2021/06/14 08:21:47;;;;;;;10.27;4.45;;;21.50;93.80;;;;;;4911560;29;20052;-71
2021/06/14 08:26:57;;;;;;;14.15;4.90;;;21.60;93.50;;;;;;4914048;29;20040;-72
2021/06/14 08:29:23;;;;;;;12.38;4.93;;;21.70;93.80;;;;;;4914297;29;20058;-71
2021/06/14 08:31:49;;;;;;;14.40;4.78;;;21.80;93.50;;;;;;4912933;29;20051;-71
2021/06/14 08:34:16;;;;;;;12.85;4.70;;;21.80;93.70;;;;;;4915072;29;20440;-71
2021/06/14 08:36:42;;;;;;;9.20;4.40;;;21.90;93.20;;;;;;4913771;29;20036;-72
2021/06/14 08:39:12;;;;;;;9.90;4.65;;;21.90;93.20;;;;;;4914891;29;20977;-72
2021/06/14 08:41:40;;;;;;;12.98;4.25;;;22.00;92.70;;;;;;4913969;29;20048;-72
2021/06/14 08:44:08;;;;;;;9.20;4.00;;;22.10;91.90;;;;;;4913705;29;20080;-72
2021/06/14 08:46:34;;;;;;;10.73;4.45;;;22.20;92.20;;;;;;4913888;29;20485;-73
2021/06/14 08:49:01;;;;;;;12.75;4.82;;;22.20;92.00;;;;;;4913640;29;20040;-72
2021/06/14 08:51:28;;;;;;;8.48;4.18;;;22.30;91.60;;;;;;4913906;29;20052;-72
2021/06/14 08:53:54;;;;;;;12.07;4.47;;;22.30;91.50;;;;;;4913825;29;20067;-72
2021/06/14 08:56:22;;;;;;;11.20;4.43;;;22.30;91.50;;;;;;4925284;29;20040;-72
2021/06/14 08:58:49;;;;;;;13.55;5.18;;;22.40;91.60;;;;;;4913758;29;20040;-72
2021/06/14 09:01:16;;;;;;;8.27;4.50;;;22.40;91.80;;;;;;4912055;29;20051;-72
2021/06/14 09:03:42;;;;;;;13.35;3.55;;;22.50;91.70;;;;;;4912876;29;20167;-72
2021/06/14 09:06:08;;;;;;;11.05;4.28;;;22.50;91.50;;;;;;4912244;29;20118;-72
2021/06/14 09:08:34;;;;;;;12.18;3.90;;;22.60;91.50;;;;;;4916729;29;20048;-72
2021/06/14 09:11:00;;;;;;;16.00;4.60;;;22.60;91.30;;;;;;4917031;29;20103;-72
2021/06/14 09:13:28;;;;;;;13.48;4.18;;;22.60;90.70;;;;;;4916568;29;20067;-72
2021/06/14 09:16:10;;;;;;;12.50;4.13;;;22.60;90.70;;;;;;4917304;29;20054;-74
2021/06/14 09:18:37;;;;;;;8.90;4.13;;;22.70;90.10;;;;;;4915443;29;20453;-72
2021/06/14 09:21:18;;;;;;;11.65;4.93;;;22.70;90.10;;;;;;4919478;29;20459;-73
2021/06/14 09:23:44;;;;;;;15.60;4.60;;;22.80;89.80;;;;;;4916240;29;20079;-73
2021/06/14 09:26:31;;;;;;;14.10;5.15;;;22.80;90.60;;;;;;4916284;29;20077;-74
2021/06/14 09:29:11;;;;;;;15.65;5.30;;;22.80;89.50;;;;;;4915526;29;20060;-74
2021/06/14 09:32:03;;;;;;;20.85;6.50;;;22.90;89.70;;;;;;4911954;29;20036;-72
2021/06/14 09:34:37;;;;;;;13.55;5.60;;;22.90;90.10;;;;;;4913613;29;20051;-72
2021/06/14 09:37:11;;;;;;;11.50;5.38;;;22.90;89.20;;;;;;4915797;29;20060;-74
2021/06/14 09:39:42;;;;;;;13.77;5.30;;;23.00;88.30;;;;;;4906025;29;20040;-74
2021/06/14 09:42:27;;;;;;;13.05;5.47;;;23.00;89.40;;;;;;4915335;29;20073;-74
2021/06/14 09:45:06;;;;;;;16.02;5.22;;;23.00;87.70;;;;;;4911982;29;20036;-74
2021/06/14 09:47:31;;;;;;;16.77;5.78;;;23.00;87.40;;;;;;4930686;29;20043;-74
2021/06/14 09:50:04;;;;;;;11.20;5.00;;;23.00;89.10;;;;;;4920706;29;20044;-75
2021/06/14 09:52:31;;;;;;;11.82;5.05;;;23.10;89.50;;;;;;4918265;29;20036;-75
2021/06/14 09:55:16;;;;;;;17.30;5.50;;;23.10;90.20;;;;;;4916653;29;20051;-75
2021/06/14 09:57:43;;;;;;;12.15;5.43;;;23.20;90.30;;;;;;4916430;29;20389;-75
2021/06/14 10:00:18;;;;;;;13.63;5.55;;;23.30;90.00;;;;;;4916355;29;20044;-75
2021/06/14 10:02:45;;;;;;;14.93;5.30;;;23.30;89.30;;;;;;4906310;29;20044;-75
2021/06/14 10:05:22;;;;;;;14.43;5.35;;;23.40;89.30;;;;;;4916132;29;20040;-75
2021/06/14 10:07:50;;;;;;;12.75;4.63;;;23.40;88.90;;;;;;4916268;29;20044;-75
2021/06/14 10:10:20;;;;;;;12.93;5.00;;;23.40;89.10;;;;;;4916241;29;20051;-75
2021/06/14 10:12:57;;;;;;;12.65;4.47;;;23.40;88.00;;;;;;4929391;29;20064;-74
2021/06/14 10:15:38;;;;;;;11.02;4.88;;;23.40;88.10;;;;;;4913566;29;20036;-75
2021/06/14 10:18:09;;;;;;;14.63;4.75;;;23.50;88.30;;;;;;4916418;29;20040;-75
2021/06/14 10:20:39;;;;;;;17.52;4.88;;;23.60;88.30;;;;;;4916344;29;20096;-75
2021/06/14 10:23:06;;;;;;;12.50;4.85;;;23.60;88.00;;;;;;4915957;29;20056;-75
2021/06/14 10:25:34;;;;;;;10.70;4.93;;;23.70;87.90;;;;;;4919728;29;20039;-75
2021/06/14 10:28:01;;;;;;;19.33;5.50;;;23.70;87.10;;;;;;4929016;29;20036;-75
2021/06/14 10:30:27;;;;;;;13.05;4.47;;;23.70;86.50;;;;;;4911554;29;20072;-82
2021/06/14 10:32:55;;;;;;;11.32;4.68;;;23.80;86.40;;;;;;4906949;29;20071;-77
2021/06/14 10:35:21;;;;;;;11.05;4.88;;;23.80;85.80;;;;;;4928205;29;20119;-78
2021/06/14 10:37:50;;;;;;;10.98;5.25;;;23.70;85.10;;;;;;4923869;29;20123;-78
2021/06/14 10:40:23;;;;;;;10.23;4.07;;;23.70;84.10;;;;;;4909785;29;20067;-77
2021/06/14 10:42:49;;;;;;;11.35;4.30;;;23.80;84.60;;;;;;4910003;29;20028;-75
2021/06/14 10:45:22;;;;;;;12.82;5.15;;;23.80;84.50;;;;;;4917221;29;20064;-76
2021/06/14 10:47:49;;;;;;;12.73;4.93;;;23.90;83.60;;;;;;4924850;29;20043;-75
2021/06/14 10:50:24;;;;;;;14.90;4.18;;;23.90;84.50;;;;;;4931975;29;20472;-72
2021/06/14 10:52:50;;;;;;;10.50;4.53;;;24.00;84.50;;;;;;4922333;29;20032;-73
2021/06/14 10:55:22;;;;;;;9.32;4.20;;;24.00;84.10;;;;;;4922233;29;20032;-73
2021/06/14 10:57:48;;;;;;;13.32;4.47;;;24.10;83.40;;;;;;4906669;29;20042;-72
2021/06/14 11:00:23;;;;;;;10.98;4.45;;;24.10;83.90;;;;;;4928071;29;20063;-72
2021/06/14 11:02:59;;;;;;;13.70;4.47;;;24.20;80.40;;;;;;4914378;29;20503;-72
2021/06/14 11:05:30;;;;;;;16.77;4.25;;;24.30;81.00;;;;;;4915714;29;20419;-72
2021/06/14 11:07:56;;;;;;;11.07;4.30;;;24.30;82.50;;;;;;4916769;29;20111;-72
2021/06/14 11:10:28;;;;;;;13.55;4.75;;;24.40;81.90;;;;;;4915887;29;20050;-72
2021/06/14 11:13:10;;;;;;;11.50;4.35;;;24.40;79.30;;;;;;4916147;29;20056;-72
2021/06/14 11:15:36;;;;;;;9.10;4.57;;;24.40;79.00;;;;;;4914621;29;20115;-72
2021/06/14 11:18:06;;;;;;;12.50;4.00;;;24.40;79.10;;;;;;4914992;29;20032;-73
2021/06/14 11:20:35;;;;;;;14.02;4.40;;;24.30;78.90;;;;;;4916649;29;20489;-72
2021/06/14 11:23:02;;;;;;;14.23;4.60;;;24.40;79.40;;;;;;4914773;29;20115;-72
2021/06/14 11:25:30;;;;;;;13.82;4.80;;;24.50;80.00;;;;;;4915475;29;20126;-72
2021/06/14 11:27:58;;;;;;;12.05;4.70;;;24.50;79.90;;;;;;4928109;29;20100;-72
2021/06/14 11:30:32;;;;;;;10.68;4.50;;;24.50;79.40;;;;;;4915881;29;20099;-72
2021/06/14 11:32:59;;;;;;;13.07;4.78;;;24.60;80.60;;;;;;4913072;29;20083;-72
2021/06/14 11:35:26;;;;;;;10.68;4.40;;;24.60;80.70;;;;;;4916133;29;20032;-73
2021/06/14 11:37:53;;;;;;;15.60;5.63;;;24.60;80.90;;;;;;4915649;29;20528;-73
2021/06/14 11:40:30;;;;;;;10.23;4.45;;;24.60;81.00;;;;;;4916229;29;20044;-80
2021/06/14 11:43:11;;;;;;;9.13;4.65;;;24.60;81.20;;;;;;4916280;29;20047;-77
2021/06/14 11:45:41;;;;;;;15.02;4.80;;;24.80;81.60;;;;;;4915253;29;20044;-75
2021/06/14 11:48:41;;;;;;;10.10;4.55;;;24.70;80.70;;;;;;4914965;29;20370;-74
2021/06/14 11:51:09;;;;;;;15.25;5.65;;;24.70;81.60;;;;;;4913693;29;20044;-74
2021/06/14 11:53:52;;;;;;;12.07;5.47;;;24.80;80.90;;;;;;4915007;29;20040;-76
2021/06/14 11:56:19;;;;;;;12.50;5.32;;;24.90;81.50;;;;;;4914751;29;20059;-76
2021/06/14 11:58:47;;;;;;;13.43;6.07;;;24.90;81.50;;;;;;4911867;29;20032;-76
2021/06/14 12:01:27;;;;;;;12.70;5.53;;;24.90;82.00;;;;;;4914516;29;20077;-76
2021/06/14 12:04:31;;;;;;;12.70;5.82;;;24.90;82.30;;;;;;4915200;29;20044;-74
2021/06/14 12:07:03;;;;;;;11.85;4.97;;;25.00;82.40;;;;;;4915062;29;20261;-75
2021/06/14 12:09:30;;;;;;;13.05;5.68;;;25.00;82.90;;;;;;4916762;29;20532;-76
2021/06/14 12:12:04;;;;;;;19.55;6.95;;;25.00;83.50;;;;;;4926747;29;20535;-76
2021/06/14 12:14:32;;;;;;;14.32;6.38;;;25.10;83.00;;;;;;4918296;29;20507;-76
2021/06/14 12:17:04;;;;;;;20.92;6.45;;;25.10;82.60;;;;;;4918974;29;20036;-76
2021/06/14 12:19:33;;;;;;;16.85;6.80;;;25.10;83.00;;;;;;4917935;29;20040;-75
2021/06/14 12:22:06;;;;;;;13.55;6.88;;;25.20;83.20;;;;;;4917651;29;20059;-75
2021/06/14 12:24:37;;;;;;;17.48;7.85;;;25.10;83.00;;;;;;4920702;29;20091;-75
2021/06/14 12:27:05;;;;;;;17.60;7.18;;;25.30;83.10;;;;;;4929071;29;20032;-75
2021/06/14 12:29:32;;;;;;;18.65;7.95;;;25.40;84.40;;;;;;4925034;29;20040;-76
2021/06/14 12:32:13;;;;;;;14.50;6.25;;;25.40;84.00;;;;;;4940370;29;20064;-75
2021/06/14 12:34:41;;;;;;;12.38;6.47;;;25.50;83.20;;;;;;4924337;29;20032;-75
2021/06/14 12:37:13;;;;;;;18.50;7.93;;;25.50;83.70;;;;;;4932480;29;20068;-75
2021/06/14 12:39:40;;;;;;;14.13;7.50;;;25.50;82.70;;;;;;4919003;29;20840;-75
2021/06/14 12:42:21;;;;;;;17.33;7.00;;;25.60;82.30;;;;;;4921548;29;20385;-74
2021/06/14 12:45:07;;;;;;;15.77;7.05;;;25.60;80.30;;;;;;4921925;29;20032;-74
2021/06/14 12:47:34;;;;;;;15.60;7.53;;;25.50;78.90;;;;;;4919565;29;20035;-74